Time;durP1;ratioP1;P1;durP2;ratioP2;P2;SDS_P1;SDS_P2;PMS_P1;PMS_P2;Temp;Humidity;BMP_temperature;BMP_pressure;BME280_temperature;BME280_humidity;BME280_pressure;Samples;Min_cycle;Max_cycle;Signal;HPM_P1;HPM_P2
2023/05/09 00:00:57;;;;;;;;;;;;;;;;;;7365578;19;1825;-67
2023/05/09 00:03:25;;;;;;;;;;;;;;;;;;7362622;19;770;-67
2023/05/09 00:05:54;;;;;;;;;;;;;;;;;;7364968;19;1559;-67
2023/05/09 00:08:22;;;;;;;;;;;;;;;;;;7364849;19;1761;-67
2023/05/09 00:10:51;;;;;;;;;;;;;;;;;;7364715;19;1751;-67
2023/05/09 00:13:19;;;;;;;;;;;;;;;;;;7363200;19;1838;-67
2023/05/09 00:15:48;;;;;;;;;;;;;;;;;;7363161;19;1808;-67
2023/05/09 00:18:16;;;;;;;;;;;;;;;;;;7365801;19;1827;-67
2023/05/09 00:20:45;;;;;;;;;;;;;;;;;;7367250;19;1781;-67
2023/05/09 00:23:13;;;;;;;;;;;;;;;;;;7370328;19;1684;-66
2023/05/09 00:25:41;;;;;;;;;;;;;;;;;;7369694;19;1794;-66
2023/05/09 00:28:09;;;;;;;;;;;;;;;;;;7371123;19;1825;-66
2023/05/09 00:30:37;;;;;;;;;;;;;;;;;;7371500;19;1759;-66
2023/05/09 00:33:06;;;;;;;;;;;;;;;;;;7367186;19;1830;-67
2023/05/09 00:35:34;;;;;;;;;;;;;;;;;;7367623;19;1982;-66
2023/05/09 00:38:02;;;;;;;;;;;;;;;;;;7367308;19;1854;-67
2023/05/09 00:40:30;;;;;;;;;;;;;;;;;;7370713;19;1685;-66
2023/05/09 00:42:58;;;;;;;;;;;;;;;;;;7367754;19;1872;-66
2023/05/09 00:45:27;;;;;;;;;;;;;;;;;;7366641;19;1876;-66
2023/05/09 00:47:55;;;;;;;;;;;;;;;;;;7370158;19;1744;-66
2023/05/09 00:50:23;;;;;;;;;;;;;;;;;;7372163;19;1801;-66
2023/05/09 00:52:51;;;;;;;;;;;;;;;;;;7369730;19;1861;-66
2023/05/09 00:55:19;;;;;;;;;;;;;;;;;;7368549;19;2153;-66
2023/05/09 00:57:47;;;;;;;;;;;;;;;;;;7366623;19;782;-66
2023/05/09 01:00:16;;;;;;;;;;;;;;;;;;7371957;19;1781;-66
2023/05/09 01:02:45;;;;;;;;;;;;;;;;;;7372314;19;1829;-66
2023/05/09 01:05:13;;;;;;;;;;;;;;;;;;7366352;19;1860;-65
2023/05/09 01:07:41;;;;;;;;;;;;;;;;;;7365736;19;808;-66
2023/05/09 01:10:09;;;;;;;;;;;;;;;;;;7370483;19;1852;-66
2023/05/09 01:12:40;;;;;;;;;;;;;;;;;;7368209;19;1757;-66
2023/05/09 01:15:08;;;;;;;;;;;;;;;;;;7364808;19;1849;-66
2023/05/09 01:17:36;;;;;;;;;;;;;;;;;;7367920;19;1828;-66
2023/05/09 01:20:09;;;;;;;;;;;;;;;;;;7368784;19;1841;-65
2023/05/09 01:22:37;;;;;;;;;;;;;;;;;;7370096;19;1782;-66
2023/05/09 01:25:06;;;;;;;;;;;;;;;;;;7368751;19;2018;-66
2023/05/09 01:27:34;;;;;;;;;;;;;;;;;;7371144;19;1765;-66
2023/05/09 01:30:02;;;;;;;;;;;;;;;;;;7368498;19;1836;-66
2023/05/09 01:32:31;;;;;;;;;;;;;;;;;;7366689;19;1797;-65
2023/05/09 01:34:59;;;;;;;;;;;;;;;;;;7364925;19;1865;-66
2023/05/09 01:37:27;;;;;;;;;;;;;;;;;;7369396;19;1815;-66
2023/05/09 01:39:55;;;;;;;;;;;;;;;;;;7368686;19;1799;-66
2023/05/09 01:42:23;;;;;;;;;;;;;;;;;;7370801;19;1793;-66
2023/05/09 01:44:51;;;;;;;;;;;;;;;;;;7364465;19;1369;-66
2023/05/09 01:47:19;;;;;;;;;;;;;;;;;;7370468;19;1805;-66
2023/05/09 01:49:48;;;;;;;;;;;;;;;;;;7366638;19;1783;-66
2023/05/09 01:52:16;;;;;;;;;;;;;;;;;;7367332;19;2038;-66
2023/05/09 01:54:44;;;;;;;;;;;;;;;;;;7367114;19;1878;-66
2023/05/09 01:57:13;;;;;;;;;;;;;;;;;;7368047;19;1847;-66
2023/05/09 01:59:42;;;;;;;;;;;;;;;;;;7367107;19;1803;-65
2023/05/09 02:02:10;;;;;;;;;;;;;;;;;;7369368;19;1828;-65
2023/05/09 02:04:38;;;;;;;;;;;;;;;;;;7368036;19;2148;-65
2023/05/09 02:07:06;;;;;;;;;;;;;;;;;;7370813;19;1762;-65
2023/05/09 02:09:34;;;;;;;;;;;;;;;;;;7367423;19;2142;-65
2023/05/09 02:12:03;;;;;;;;;;;;;;;;;;7368807;19;2074;-65
2023/05/09 02:14:31;;;;;;;;;;;;;;;;;;7368467;19;1861;-65
2023/05/09 02:17:04;;;;;;;;;;;;;;;;;;7367390;19;1814;-65
2023/05/09 02:19:33;;;;;;;;;;;;;;;;;;7368814;19;1584;-65
2023/05/09 02:22:01;;;;;;;;;;;;;;;;;;7369443;19;2006;-65
2023/05/09 02:24:29;;;;;;;;;;;;;;;;;;7368371;19;1681;-66
2023/05/09 02:26:57;;;;;;;;;;;;;;;;;;7368533;19;1601;-65
2023/05/09 02:29:25;;;;;;;;;;;;;;;;;;7365326;19;1653;-65
2023/05/09 02:31:53;;;;;;;;;;;;;;;;;;7364811;19;834;-65
2023/05/09 02:34:21;;;;;;;;;;;;;;;;;;7364871;19;1858;-65
2023/05/09 02:36:50;;;;;;;;;;;;;;;;;;7364140;19;764;-65
2023/05/09 02:39:18;;;;;;;;;;;;;;;;;;7366333;19;1760;-65
2023/05/09 02:41:46;;;;;;;;;;;;;;;;;;7367995;19;1849;-65
2023/05/09 02:44:14;;;;;;;;;;;;;;;;;;7361857;19;1282;-66
2023/05/09 02:46:43;;;;;;;;;;;;;;;;;;7367560;19;1815;-65
2023/05/09 02:49:11;;;;;;;;;;;;;;;;;;7365041;19;1751;-65
2023/05/09 02:51:39;;;;;;;;;;;;;;;;;;7368161;19;1807;-65
2023/05/09 02:54:07;;;;;;;;;;;;;;;;;;7366555;19;2020;-65
2023/05/09 02:56:36;;;;;;;;;;;;;;;;;;7369200;19;1840;-65
2023/05/09 02:59:04;;;;;;;;;;;;;;;;;;7365959;19;1572;-65
2023/05/09 03:01:32;;;;;;;;;;;;;;;;;;7367470;19;1801;-65
2023/05/09 03:04:00;;;;;;;;;;;;;;;;;;7364658;19;1332;-65
2023/05/09 03:06:28;;;;;;;;;;;;;;;;;;7366323;19;1860;-65
2023/05/09 03:08:56;;;;;;;;;;;;;;;;;;7364381;19;1425;-65
2023/05/09 03:11:26;;;;;;;;;;;;;;;;;;7365700;19;1790;-65
2023/05/09 03:13:54;;;;;;;;;;;;;;;;;;7366587;19;1841;-65
2023/05/09 03:16:22;;;;;;;;;;;;;;;;;;7365435;19;1841;-65
2023/05/09 03:18:51;;;;;;;;;;;;;;;;;;7362123;19;1740;-64
2023/05/09 03:21:20;;;;;;;;;;;;;;;;;;7365158;19;1792;-65
2023/05/09 03:23:48;;;;;;;;;;;;;;;;;;7365199;19;1775;-65
2023/05/09 03:26:16;;;;;;;;;;;;;;;;;;7367704;19;1762;-65
2023/05/09 03:28:44;;;;;;;;;;;;;;;;;;7363055;19;1726;-65
2023/05/09 03:31:12;;;;;;;;;;;;;;;;;;7364779;19;1863;-65
2023/05/09 03:33:41;;;;;;;;;;;;;;;;;;7365975;19;1797;-65
2023/05/09 03:36:10;;;;;;;;;;;;;;;;;;7359978;19;1929;-64
2023/05/09 03:38:41;;;;;;;;;;;;;;;;;;7364208;19;1826;-65
2023/05/09 03:41:09;;;;;;;;;;;;;;;;;;7362932;19;803;-65
2023/05/09 03:43:37;;;;;;;;;;;;;;;;;;7366846;19;1882;-65
2023/05/09 03:46:05;;;;;;;;;;;;;;;;;;7358940;19;1281;-64
2023/05/09 03:48:33;;;;;;;;;;;;;;;;;;7366577;19;1795;-64
2023/05/09 03:51:02;;;;;;;;;;;;;;;;;;7365746;19;2092;-65
2023/05/09 03:53:32;;;;;;;;;;;;;;;;;;7364483;19;1858;-65
2023/05/09 03:56:00;;;;;;;;;;;;;;;;;;7364951;19;2230;-64
2023/05/09 03:58:29;;;;;;;;;;;;;;;;;;7370874;19;1655;-64
2023/05/09 04:00:57;;;;;;;;;;;;;;;;;;7369062;19;1921;-65
2023/05/09 04:03:26;;;;;;;;;;;;;;;;;;7368653;19;1790;-64
2023/05/09 04:05:55;;;;;;;;;;;;;;;;;;7367118;19;1354;-64
2023/05/09 04:08:34;;;;;;;;;;;;;;;;;;7371259;19;1797;-64
2023/05/09 04:11:04;;;;;;;;;;;;;;;;;;7368289;19;1811;-65
2023/05/09 04:13:33;;;;;;;;;;;;;;;;;;7370548;19;1797;-65
2023/05/09 04:16:04;;;;;;;;;;;;;;;;;;7369246;19;2266;-65
2023/05/09 04:18:34;;;;;;;;;;;;;;;;;;7372706;19;1751;-64
2023/05/09 04:21:02;;;;;;;;;;;;;;;;;;7370130;19;1796;-65
2023/05/09 04:23:30;;;;;;;;;;;;;;;;;;7369659;19;1785;-65
2023/05/09 04:26:00;;;;;;;;;;;;;;;;;;7367287;19;2203;-65
2023/05/09 04:28:28;;;;;;;;;;;;;;;;;;7369781;19;1860;-65
2023/05/09 04:30:57;;;;;;;;;;;;;;;;;;7367822;19;906;-65
2023/05/09 04:33:27;;;;;;;;;;;;;;;;;;7372706;19;1756;-65
2023/05/09 04:36:00;;;;;;;;;;;;;;;;;;7367543;19;1850;-65
2023/05/09 04:38:28;;;;;;;;;;;;;;;;;;7368852;19;1860;-65
2023/05/09 04:40:57;;;;;;;;;;;;;;;;;;7366949;19;847;-65
2023/05/09 04:43:26;;;;;;;;;;;;;;;;;;7371569;19;1827;-64
2023/05/09 04:45:55;;;;;;;;;;;;;;;;;;7366350;19;1290;-65
2023/05/09 04:48:23;;;;;;;;;;;;;;;;;;7371160;19;1817;-65
2023/05/09 04:50:51;;;;;;;;;;;;;;;;;;7370241;19;1980;-65
2023/05/09 04:53:19;;;;;;;;;;;;;;;;;;7370582;19;1780;-65
2023/05/09 04:55:48;;;;;;;;;;;;;;;;;;7365270;19;1856;-66
2023/05/09 04:58:17;;;;;;;;;;;;;;;;;;7369827;19;1800;-66
2023/05/09 05:00:45;;;;;;;;;;;;;;;;;;7370715;19;1814;-65
2023/05/09 05:03:13;;;;;;;;;;;;;;;;;;7368194;19;1779;-65
2023/05/09 05:05:41;;;;;;;;;;;;;;;;;;7366061;19;1274;-65
2023/05/09 05:08:10;;;;;;;;;;;;;;;;;;7368168;19;2085;-65
2023/05/09 05:10:40;;;;;;;;;;;;;;;;;;7370471;19;1812;-65
2023/05/09 05:13:11;;;;;;;;;;;;;;;;;;7371031;19;1798;-66
2023/05/09 05:15:43;;;;;;;;;;;;;;;;;;7367155;19;1866;-66
2023/05/09 05:18:12;;;;;;;;;;;;;;;;;;7369499;19;1817;-66
2023/05/09 05:20:40;;;;;;;;;;;;;;;;;;7368894;19;1670;-65
2023/05/09 05:23:08;;;;;;;;;;;;;;;;;;7370683;19;1901;-67
2023/05/09 05:25:36;;;;;;;;;;;;;;;;;;7367383;19;1720;-66
2023/05/09 05:28:04;;;;;;;;;;;;;;;;;;7367360;19;1708;-65
2023/05/09 05:30:32;;;;;;;;;;;;;;;;;;7369536;19;1767;-65
2023/05/09 05:33:01;;;;;;;;;;;;;;;;;;7367929;19;2110;-66
2023/05/09 05:35:29;;;;;;;;;;;;;;;;;;7367369;19;1845;-67
2023/05/09 05:37:57;;;;;;;;;;;;;;;;;;7368919;19;1688;-66
2023/05/09 05:40:26;;;;;;;;;;;;;;;;;;7365916;19;1804;-67
2023/05/09 05:42:56;;;;;;;;;;;;;;;;;;7370692;19;1782;-66
2023/05/09 05:45:25;;;;;;;;;;;;;;;;;;7365549;19;2227;-66
2023/05/09 05:47:55;;;;;;;;;;;;;;;;;;7368037;19;1845;-65
2023/05/09 05:50:24;;;;;;;;;;;;;;;;;;7369154;19;1764;-66
2023/05/09 05:52:52;;;;;;;;;;;;;;;;;;7369339;19;1852;-67
2023/05/09 05:55:20;;;;;;;;;;;;;;;;;;7366628;19;2036;-67
2023/05/09 05:57:49;;;;;;;;;;;;;;;;;;7364657;19;804;-65
2023/05/09 06:00:17;;;;;;;;;;;;;;;;;;7365847;19;851;-66
2023/05/09 06:02:49;;;;;;;;;;;;;;;;;;7365564;19;579;-67
2023/05/09 06:05:34;;;;;;;;;;;;;;;;;;7362237;19;1361;-66
2023/05/09 06:08:03;;;;;;;;;;;;;;;;;;7363432;19;872;-67
2023/05/09 06:10:31;;;;;;;;;;;;;;;;;;7365905;19;838;-66
2023/05/09 06:12:59;;;;;;;;;;;;;;;;;;7366071;19;821;-66
2023/05/09 06:15:27;;;;;;;;;;;;;;;;;;7363164;19;1845;-66
2023/05/09 06:17:56;;;;;;;;;;;;;;;;;;7364402;19;1658;-66
2023/05/09 06:20:24;;;;;;;;;;;;;;;;;;7365197;19;1832;-66
2023/05/09 06:22:52;;;;;;;;;;;;;;;;;;7369454;19;2016;-67
2023/05/09 06:25:20;;;;;;;;;;;;;;;;;;7364288;19;1310;-66
2023/05/09 06:27:49;;;;;;;;;;;;;;;;;;7365215;19;1787;-66
2023/05/09 06:30:17;;;;;;;;;;;;;;;;;;7370655;19;1762;-67
2023/05/09 06:32:45;;;;;;;;;;;;;;;;;;7369862;19;1758;-65
2023/05/09 06:35:14;;;;;;;;;;;;;;;;;;7363409;19;1849;-67
2023/05/09 06:37:42;;;;;;;;;;;;;;;;;;7366764;19;2064;-66
2023/05/09 06:40:10;;;;;;;;;;;;;;;;;;7365809;19;842;-66
2023/05/09 06:42:38;;;;;;;;;;;;;;;;;;7365714;19;823;-67
2023/05/09 06:45:06;;;;;;;;;;;;;;;;;;7363938;19;1314;-67
2023/05/09 06:47:35;;;;;;;;;;;;;;;;;;7365839;19;1782;-66
2023/05/09 06:50:03;;;;;;;;;;;;;;;;;;7365429;19;776;-64
2023/05/09 06:52:31;;;;;;;;;;;;;;;;;;7366584;19;835;-66
2023/05/09 06:54:59;;;;;;;;;;;;;;;;;;7363682;19;1873;-66
2023/05/09 06:57:27;;;;;;;;;;;;;;;;;;7365942;19;1841;-66
2023/05/09 06:59:55;;;;;;;;;;;;;;;;;;7366870;19;1872;-66
2023/05/09 07:02:23;;;;;;;;;;;;;;;;;;7365437;19;849;-66
2023/05/09 07:04:52;;;;;;;;;;;;;;;;;;7364370;19;1353;-66
2023/05/09 07:07:20;;;;;;;;;;;;;;;;;;7365401;19;1771;-68
2023/05/09 07:09:49;;;;;;;;;;;;;;;;;;7366045;19;1848;-67
2023/05/09 07:12:17;;;;;;;;;;;;;;;;;;7367607;19;1067;-66
2023/05/09 07:14:45;;;;;;;;;;;;;;;;;;7363207;19;1352;-66
2023/05/09 07:17:13;;;;;;;;;;;;;;;;;;7366351;19;1849;-68
2023/05/09 07:19:41;;;;;;;;;;;;;;;;;;7364591;19;841;-66
2023/05/09 07:22:09;;;;;;;;;;;;;;;;;;7365097;19;900;-68
2023/05/09 07:24:37;;;;;;;;;;;;;;;;;;7363803;19;1278;-69
2023/05/09 07:27:06;;;;;;;;;;;;;;;;;;7367715;19;1771;-67
2023/05/09 07:29:34;;;;;;;;;;;;;;;;;;7366852;19;830;-68
2023/05/09 07:32:02;;;;;;;;;;;;;;;;;;7371704;19;768;-67
2023/05/09 07:34:30;;;;;;;;;;;;;;;;;;7374168;19;1521;-68
2023/05/09 07:36:58;;;;;;;;;;;;;;;;;;7367831;19;1845;-68
2023/05/09 07:39:26;;;;;;;;;;;;;;;;;;7371232;19;809;-68
2023/05/09 07:41:54;;;;;;;;;;;;;;;;;;7371603;19;713;-68
2023/05/09 07:44:23;;;;;;;;;;;;;;;;;;7374454;19;1266;-69
2023/05/09 07:46:51;;;;;;;;;;;;;;;;;;7371272;19;798;-68
2023/05/09 07:49:19;;;;;;;;;;;;;;;;;;7371068;19;849;-68
2023/05/09 07:51:47;;;;;;;;;;;;;;;;;;7370720;19;772;-68
2023/05/09 07:54:15;;;;;;;;;;;;;;;;;;7369926;19;1341;-69
2023/05/09 07:56:43;;;;;;;;;;;;;;;;;;7370323;19;1838;-68
2023/05/09 07:59:12;;;;;;;;;;;;;;;;;;7370671;19;835;-68
2023/05/09 08:01:40;;;;;;;;;;;;;;;;;;7370258;19;771;-69
2023/05/09 08:04:08;;;;;;;;;;;;;;;;;;7370736;19;1251;-68
2023/05/09 08:06:36;;;;;;;;;;;;;;;;;;7371076;19;2050;-68
2023/05/09 08:09:05;;;;;;;;;;;;;;;;;;7378503;19;1746;-68
2023/05/09 08:11:33;;;;;;;;;;;;;;;;;;7373653;19;1680;-68
2023/05/09 08:14:01;;;;;;;;;;;;;;;;;;7370699;19;1260;-68
2023/05/09 08:16:29;;;;;;;;;;;;;;;;;;7368816;19;1869;-68
2023/05/09 08:18:57;;;;;;;;;;;;;;;;;;7369768;19;823;-68
2023/05/09 08:21:25;;;;;;;;;;;;;;;;;;7372098;19;1847;-68
2023/05/09 08:23:54;;;;;;;;;;;;;;;;;;7370169;19;1279;-68
2023/05/09 08:26:22;;;;;;;;;;;;;;;;;;7371621;19;1841;-68
2023/05/09 08:28:51;;;;;;;;;;;;;;;;;;7368894;19;794;-68
2023/05/09 08:31:19;;;;;;;;;;;;;;;;;;7371873;19;1658;-67
2023/05/09 08:33:48;;;;;;;;;;;;;;;;;;7367521;19;822;-68
2023/05/09 08:36:16;;;;;;;;;;;;;;;;;;7368197;19;1850;-67
2023/05/09 08:38:44;;;;;;;;;;;;;;;;;;7372750;19;2053;-68
2023/05/09 08:41:12;;;;;;;;;;;;;;;;;;7368631;19;1011;-68
2023/05/09 08:43:40;;;;;;;;;;;;;;;;;;7368851;19;788;-68
2023/05/09 08:46:09;;;;;;;;;;;;;;;;;;7367287;19;1823;-67
2023/05/09 08:48:38;;;;;;;;;;;;;;;;;;7371578;19;1747;-67
2023/05/09 08:51:06;;;;;;;;;;;;;;;;;;7369748;19;702;-69
2023/05/09 08:53:34;;;;;;;;;;;;;;;;;;7373927;19;1653;-68
2023/05/09 08:56:02;;;;;;;;;;;;;;;;;;7368522;19;1869;-67
2023/05/09 08:58:31;;;;;;;;;;;;;;;;;;7368561;19;838;-66
2023/05/09 09:01:00;;;;;;;;;;;;;;;;;;7368822;19;726;-66
2023/05/09 09:03:28;;;;;;;;;;;;;;;;;;7371522;19;1811;-66
2023/05/09 09:05:56;;;;;;;;;;;;;;;;;;7365481;19;1305;-66
2023/05/09 09:08:25;;;;;;;;;;;;;;;;;;7370834;19;1773;-66
2023/05/09 09:10:53;;;;;;;;;;;;;;;;;;7368201;19;867;-66
2023/05/09 09:13:21;;;;;;;;;;;;;;;;;;7368457;19;1847;-66
2023/05/09 09:15:50;;;;;;;;;;;;;;;;;;7370879;19;1850;-66
2023/05/09 09:18:18;;;;;;;;;;;;;;;;;;7367734;19;877;-66
2023/05/09 09:20:46;;;;;;;;;;;;;;;;;;7368578;19;813;-66
2023/05/09 09:23:14;;;;;;;;;;;;;;;;;;7372052;19;1804;-67
2023/05/09 09:25:42;;;;;;;;;;;;;;;;;;7365605;19;1274;-67
2023/05/09 09:28:11;;;;;;;;;;;;;;;;;;7367773;19;853;-66
2023/05/09 09:30:39;;;;;;;;;;;;;;;;;;7368166;19;818;-66
2023/05/09 09:33:07;;;;;;;;;;;;;;;;;;7368834;19;1846;-66
2023/05/09 09:35:35;;;;;;;;;;;;;;;;;;7365749;19;1344;-66
2023/05/09 09:38:03;;;;;;;;;;;;;;;;;;7364919;19;1850;-66
2023/05/09 09:40:31;;;;;;;;;;;;;;;;;;7367058;19;871;-64
2023/05/09 09:42:59;;;;;;;;;;;;;;;;;;7369040;19;2101;-66
2023/05/09 09:45:28;;;;;;;;;;;;;;;;;;7368345;19;1846;-66
2023/05/09 09:47:56;;;;;;;;;;;;;;;;;;7367633;19;736;-66
2023/05/09 09:50:24;;;;;;;;;;;;;;;;;;7367786;19;805;-66
2023/05/09 09:52:52;;;;;;;;;;;;;;;;;;7365593;19;1600;-66
2023/05/09 09:55:20;;;;;;;;;;;;;;;;;;7364790;19;1336;-65
2023/05/09 09:57:49;;;;;;;;;;;;;;;;;;7363774;19;1854;-67
2023/05/09 10:00:17;;;;;;;;;;;;;;;;;;7370274;19;2055;-66
2023/05/09 10:02:45;;;;;;;;;;;;;;;;;;7367183;19;1823;-66
2023/05/09 10:05:13;;;;;;;;;;;;;;;;;;7365585;19;1333;-67
2023/05/09 10:07:41;;;;;;;;;;;;;;;;;;7369774;19;1772;-67
2023/05/09 10:10:09;;;;;;;;;;;;;;;;;;7366737;19;792;-66
2023/05/09 10:12:38;;;;;;;;;;;;;;;;;;7367274;19;805;-66
2023/05/09 10:15:06;;;;;;;;;;;;;;;;;;7365296;19;1302;-67
2023/05/09 10:17:34;;;;;;;;;;;;;;;;;;7364629;19;1856;-66
2023/05/09 10:20:02;;;;;;;;;;;;;;;;;;7366922;19;858;-66
2023/05/09 10:22:30;;;;;;;;;;;;;;;;;;7368935;19;845;-65
2023/05/09 10:24:59;;;;;;;;;;;;;;;;;;7366487;19;1265;-67
2023/05/09 10:27:27;;;;;;;;;;;;;;;;;;7369665;19;1819;-66
2023/05/09 10:29:55;;;;;;;;;;;;;;;;;;7367635;19;809;-66
2023/05/09 10:32:23;;;;;;;;;;;;;;;;;;7368166;19;822;-66
2023/05/09 10:34:51;;;;;;;;;;;;;;;;;;7365857;19;1279;-66
2023/05/09 10:37:19;;;;;;;;;;;;;;;;;;7365850;19;1858;-65
2023/05/09 10:39:51;;;;;;;;;;;;;;;;;;7370745;19;1808;-65
2023/05/09 10:42:20;;;;;;;;;;;;;;;;;;7368361;19;774;-65
2023/05/09 10:44:48;;;;;;;;;;;;;;;;;;7365926;19;1285;-65
2023/05/09 10:47:16;;;;;;;;;;;;;;;;;;7366136;19;857;-66
2023/05/09 10:49:44;;;;;;;;;;;;;;;;;;7368938;19;1802;-66
2023/05/09 10:52:13;;;;;;;;;;;;;;;;;;7365451;19;791;-67
2023/05/09 10:54:41;;;;;;;;;;;;;;;;;;7364407;19;1282;-67
2023/05/09 10:57:09;;;;;;;;;;;;;;;;;;7367591;19;1861;-66
2023/05/09 10:59:38;;;;;;;;;;;;;;;;;;7364230;19;791;-67
2023/05/09 11:02:06;;;;;;;;;;;;;;;;;;7364254;19;867;-67
2023/05/09 11:04:35;;;;;;;;;;;;;;;;;;7363128;19;1341;-67
2023/05/09 11:07:03;;;;;;;;;;;;;;;;;;7364902;19;819;-64
2023/05/09 11:09:31;;;;;;;;;;;;;;;;;;7362729;19;842;-66
2023/05/09 11:12:00;;;;;;;;;;;;;;;;;;7364770;19;777;-65
2023/05/09 11:14:28;;;;;;;;;;;;;;;;;;7363874;19;1283;-65
2023/05/09 11:16:56;;;;;;;;;;;;;;;;;;7365111;19;1845;-60
2023/05/09 11:19:24;;;;;;;;;;;;;;;;;;7364096;19;870;-64
2023/05/09 11:21:52;;;;;;;;;;;;;;;;;;7363992;19;818;-62
2023/05/09 11:24:21;;;;;;;;;;;;;;;;;;7363579;19;1274;-64
2023/05/09 11:26:49;;;;;;;;;;;;;;;;;;7364506;19;809;-63
2023/05/09 11:29:17;;;;;;;;;;;;;;;;;;7364485;19;818;-67
2023/05/09 11:31:46;;;;;;;;;;;;;;;;;;7364686;19;818;-67
2023/05/09 11:34:14;;;;;;;;;;;;;;;;;;7364058;19;1278;-67
2023/05/09 11:36:42;;;;;;;;;;;;;;;;;;7362441;19;1837;-66
2023/05/09 11:39:11;;;;;;;;;;;;;;;;;;7364313;19;719;-66
2023/05/09 11:41:39;;;;;;;;;;;;;;;;;;7362675;19;894;-63
2023/05/09 11:44:07;;;;;;;;;;;;;;;;;;7363725;19;1419;-65
2023/05/09 11:46:35;;;;;;;;;;;;;;;;;;7364200;19;837;-66
2023/05/09 11:49:03;;;;;;;;;;;;;;;;;;7362642;19;868;-67
2023/05/09 11:51:32;;;;;;;;;;;;;;;;;;7363579;19;826;-67
2023/05/09 11:54:00;;;;;;;;;;;;;;;;;;7364123;19;1514;-68
2023/05/09 11:56:28;;;;;;;;;;;;;;;;;;7367150;19;1709;-66
2023/05/09 11:58:56;;;;;;;;;;;;;;;;;;7364797;19;1832;-65
2023/05/09 12:01:24;;;;;;;;;;;;;;;;;;7364747;19;1711;-65
2023/05/09 12:03:52;;;;;;;;;;;;;;;;;;7366659;19;1396;-65
2023/05/09 12:06:20;;;;;;;;;;;;;;;;;;7362848;19;775;-66
2023/05/09 12:08:48;;;;;;;;;;;;;;;;;;7362477;19;874;-65
2023/05/09 12:11:17;;;;;;;;;;;;;;;;;;7361064;19;831;-66
2023/05/09 12:13:45;;;;;;;;;;;;;;;;;;7362664;19;936;-67
2023/05/09 12:16:13;;;;;;;;;;;;;;;;;;7360253;19;1240;-66
2023/05/09 12:18:41;;;;;;;;;;;;;;;;;;7365920;19;1869;-65
2023/05/09 12:21:11;;;;;;;;;;;;;;;;;;7368785;19;955;-67
2023/05/09 12:23:39;;;;;;;;;;;;;;;;;;7369746;19;861;-67
2023/05/09 12:26:07;;;;;;;;;;;;;;;;;;7366787;19;1238;-67
2023/05/09 12:28:35;;;;;;;;;;;;;;;;;;7368064;19;855;-68
2023/05/09 12:31:03;;;;;;;;;;;;;;;;;;7369614;19;2054;-68
2023/05/09 12:33:31;;;;;;;;;;;;;;;;;;7373496;19;1372;-68
2023/05/09 12:36:01;;;;;;;;;;;;;;;;;;7366031;19;1275;-69
2023/05/09 12:38:30;;;;;;;;;;;;;;;;;;7368555;19;1853;-70
2023/05/09 12:40:58;;;;;;;;;;;;;;;;;;7368435;19;813;-66
2023/05/09 12:43:26;;;;;;;;;;;;;;;;;;7368983;19;782;-66
2023/05/09 12:45:54;;;;;;;;;;;;;;;;;;7369478;19;1793;-67
2023/05/09 12:48:22;;;;;;;;;;;;;;;;;;7368456;19;828;-64
2023/05/09 12:50:50;;;;;;;;;;;;;;;;;;7369094;19;831;-66
2023/05/09 12:53:18;;;;;;;;;;;;;;;;;;7368864;19;823;-66
2023/05/09 12:55:47;;;;;;;;;;;;;;;;;;7368966;19;1843;-64
2023/05/09 12:58:15;;;;;;;;;;;;;;;;;;7369041;19;2273;-66
2023/05/09 13:00:43;;;;;;;;;;;;;;;;;;7368706;19;829;-65
2023/05/09 13:03:11;;;;;;;;;;;;;;;;;;7368325;19;767;-65
2023/05/09 13:05:39;;;;;;;;;;;;;;;;;;7368663;19;2052;-65
2023/05/09 13:08:07;;;;;;;;;;;;;;;;;;7367798;19;890;-62
2023/05/09 13:10:35;;;;;;;;;;;;;;;;;;7366531;19;826;-64
2023/05/09 13:13:04;;;;;;;;;;;;;;;;;;7368131;19;883;-64
2023/05/09 13:15:32;;;;;;;;;;;;;;;;;;7367663;19;1721;-63
2023/05/09 13:18:00;;;;;;;;;;;;;;;;;;7365084;19;1874;-62
2023/05/09 13:20:28;;;;;;;;;;;;;;;;;;7367808;19;834;-65
2023/05/09 13:22:57;;;;;;;;;;;;;;;;;;7367986;19;854;-64
2023/05/09 13:25:25;;;;;;;;;;;;;;;;;;7367559;19;1774;-64
2023/05/09 13:27:53;;;;;;;;;;;;;;;;;;7367092;19;861;-63
2023/05/09 13:30:21;;;;;;;;;;;;;;;;;;7367680;19;855;-64
2023/05/09 13:32:50;;;;;;;;;;;;;;;;;;7367801;19;832;-64
2023/05/09 13:35:18;;;;;;;;;;;;;;;;;;7366317;19;1853;-61
2023/05/09 13:37:46;;;;;;;;;;;;;;;;;;7365937;19;1838;-64
2023/05/09 13:40:14;;;;;;;;;;;;;;;;;;7367634;19;791;-63
2023/05/09 13:42:42;;;;;;;;;;;;;;;;;;7368542;19;1749;-62
2023/05/09 13:45:11;;;;;;;;;;;;;;;;;;7366133;19;1263;-62
2023/05/09 13:47:39;;;;;;;;;;;;;;;;;;7366881;19;808;-62
2023/05/09 13:50:07;;;;;;;;;;;;;;;;;;7367233;19;877;-65
2023/05/09 13:52:35;;;;;;;;;;;;;;;;;;7367843;19;2044;-60
2023/05/09 13:55:03;;;;;;;;;;;;;;;;;;7370059;19;1604;-62
2023/05/09 13:57:31;;;;;;;;;;;;;;;;;;7366406;19;1834;-66
2023/05/09 14:00:00;;;;;;;;;;;;;;;;;;7366829;19;873;-65
2023/05/09 14:02:28;;;;;;;;;;;;;;;;;;7368206;19;2057;-64
2023/05/09 14:04:57;;;;;;;;;;;;;;;;;;7365228;19;1274;-64
2023/05/09 14:07:25;;;;;;;;;;;;;;;;;;7368634;19;1615;-63
2023/05/09 14:09:53;;;;;;;;;;;;;;;;;;7366308;19;796;-63
2023/05/09 14:12:22;;;;;;;;;;;;;;;;;;7366802;19;833;-63
2023/05/09 14:14:50;;;;;;;;;;;;;;;;;;7365446;19;1290;-63
2023/05/09 14:17:18;;;;;;;;;;;;;;;;;;7366899;19;1853;-65
2023/05/09 14:19:46;;;;;;;;;;;;;;;;;;7366987;19;1798;-66
2023/05/09 14:22:15;;;;;;;;;;;;;;;;;;7368820;19;1580;-64
2023/05/09 14:24:43;;;;;;;;;;;;;;;;;;7365511;19;1361;-64
2023/05/09 14:27:11;;;;;;;;;;;;;;;;;;7366417;19;837;-63
2023/05/09 14:29:39;;;;;;;;;;;;;;;;;;7365851;19;904;-66
2023/05/09 14:32:11;;;;;;;;;;;;;;;;;;7367664;19;1791;-64
2023/05/09 14:34:39;;;;;;;;;;;;;;;;;;7365910;19;1934;-64
2023/05/09 14:37:12;;;;;;;;;;;;;;;;;;7369887;19;1389;-63
2023/05/09 14:39:40;;;;;;;;;;;;;;;;;;7365437;19;1857;-63
2023/05/09 14:42:10;;;;;;;;;;;;;;;;;;7370391;19;1860;-64
2023/05/09 14:44:38;;;;;;;;;;;;;;;;;;7363315;19;1294;-65
2023/05/09 14:47:06;;;;;;;;;;;;;;;;;;7366126;19;826;-64
2023/05/09 14:49:34;;;;;;;;;;;;;;;;;;7365136;19;873;-65
2023/05/09 14:52:02;;;;;;;;;;;;;;;;;;7368105;19;1597;-65
2023/05/09 14:54:30;;;;;;;;;;;;;;;;;;7365190;19;1330;-63
2023/05/09 14:57:00;;;;;;;;;;;;;;;;;;7365995;19;865;-63
2023/05/09 14:59:29;;;;;;;;;;;;;;;;;;7362910;19;1842;-63
2023/05/09 15:01:57;;;;;;;;;;;;;;;;;;7365703;19;830;-64
2023/05/09 15:04:29;;;;;;;;;;;;;;;;;;7365329;19;1610;-64
2023/05/09 15:06:57;;;;;;;;;;;;;;;;;;7366155;19;1566;-64
2023/05/09 15:09:25;;;;;;;;;;;;;;;;;;7363779;19;866;-64
2023/05/09 15:11:53;;;;;;;;;;;;;;;;;;7365804;19;856;-64
2023/05/09 15:14:22;;;;;;;;;;;;;;;;;;7364214;19;1274;-65
2023/05/09 15:16:50;;;;;;;;;;;;;;;;;;7364998;19;857;-65
2023/05/09 15:19:20;;;;;;;;;;;;;;;;;;7364955;19;2138;-64
2023/05/09 15:21:48;;;;;;;;;;;;;;;;;;7364874;19;773;-63
2023/05/09 15:24:17;;;;;;;;;;;;;;;;;;7363813;19;1246;-63
2023/05/09 15:26:45;;;;;;;;;;;;;;;;;;7364901;19;830;-64
2023/05/09 15:29:13;;;;;;;;;;;;;;;;;;7364419;19;1667;-62
2023/05/09 15:31:41;;;;;;;;;;;;;;;;;;7364054;19;787;-62
2023/05/09 15:34:09;;;;;;;;;;;;;;;;;;7364382;19;1277;-63
2023/05/09 15:36:37;;;;;;;;;;;;;;;;;;7363817;19;876;-62
2023/05/09 15:39:06;;;;;;;;;;;;;;;;;;7362813;19;1846;-63
2023/05/09 15:41:34;;;;;;;;;;;;;;;;;;7367544;19;1509;-65
2023/05/09 15:44:02;;;;;;;;;;;;;;;;;;7364408;19;1352;-62
2023/05/09 15:46:31;;;;;;;;;;;;;;;;;;7365026;19;786;-63
2023/05/09 15:48:59;;;;;;;;;;;;;;;;;;7363313;19;869;-64
2023/05/09 15:51:28;;;;;;;;;;;;;;;;;;7367537;19;1811;-63
2023/05/09 15:53:56;;;;;;;;;;;;;;;;;;7371185;19;1265;-61
2023/05/09 15:56:25;;;;;;;;;;;;;;;;;;7372464;19;1667;-62
2023/05/09 15:58:53;;;;;;;;;;;;;;;;;;7369327;19;1841;-64
2023/05/09 16:01:21;;;;;;;;;;;;;;;;;;7370633;19;811;-64
2023/05/09 16:03:49;;;;;;;;;;;;;;;;;;7370660;19;809;-63
2023/05/09 16:06:17;;;;;;;;;;;;;;;;;;7368139;19;1359;-64
2023/05/09 16:08:46;;;;;;;;;;;;;;;;;;7372632;19;1798;-64
2023/05/09 16:11:14;;;;;;;;;;;;;;;;;;7369826;19;783;-65
2023/05/09 16:13:42;;;;;;;;;;;;;;;;;;7369915;19;754;-61
2023/05/09 16:16:10;;;;;;;;;;;;;;;;;;7371405;19;1784;-64
2023/05/09 16:18:38;;;;;;;;;;;;;;;;;;7368480;19;1857;-62
2023/05/09 16:21:07;;;;;;;;;;;;;;;;;;7374091;19;1778;-61
2023/05/09 16:23:35;;;;;;;;;;;;;;;;;;7369867;19;822;-63
2023/05/09 16:26:03;;;;;;;;;;;;;;;;;;7367691;19;1297;-62
2023/05/09 16:28:31;;;;;;;;;;;;;;;;;;7369146;19;1580;-61
2023/05/09 16:31:03;;;;;;;;;;;;;;;;;;7372286;19;1775;-57
2023/05/09 16:33:31;;;;;;;;;;;;;;;;;;7371168;19;1542;-62
2023/05/09 16:36:00;;;;;;;;;;;;;;;;;;7367732;19;1327;-62
2023/05/09 16:38:29;;;;;;;;;;;;;;;;;;7368226;19;1868;-64
2023/05/09 16:40:57;;;;;;;;;;;;;;;;;;7368826;19;818;-63
2023/05/09 16:43:25;;;;;;;;;;;;;;;;;;7369466;19;889;-62
2023/05/09 16:45:53;;;;;;;;;;;;;;;;;;7369971;19;2085;-62
2023/05/09 16:48:21;;;;;;;;;;;;;;;;;;7368797;19;799;-62
2023/05/09 16:50:52;;;;;;;;;;;;;;;;;;7368667;19;811;-62
2023/05/09 16:53:21;;;;;;;;;;;;;;;;;;7368852;19;780;-63
2023/05/09 16:55:49;;;;;;;;;;;;;;;;;;7367393;19;1283;-64
2023/05/09 16:58:17;;;;;;;;;;;;;;;;;;7368920;19;1838;-64
2023/05/09 17:00:46;;;;;;;;;;;;;;;;;;7373045;19;1552;-64
2023/05/09 17:03:14;;;;;;;;;;;;;;;;;;7366905;19;802;-62
2023/05/09 17:05:42;;;;;;;;;;;;;;;;;;7369776;19;1775;-62
2023/05/09 17:08:10;;;;;;;;;;;;;;;;;;7367567;19;795;-65
2023/05/09 17:10:38;;;;;;;;;;;;;;;;;;7368438;19;826;-64
2023/05/09 17:13:07;;;;;;;;;;;;;;;;;;7371861;19;1197;-64
2023/05/09 17:15:37;;;;;;;;;;;;;;;;;;7370365;19;1407;-65